createdAt,value
2018-08-13T00:00:59.295Z,72.19
2018-08-13T00:03:27.778Z,71.71
2018-08-13T00:05:57.310Z,72.29
2018-08-13T00:08:25.827Z,71.46
2018-08-13T00:10:54.250Z,70.79
2018-08-13T00:13:22.779Z,70.44
2018-08-13T00:15:51.581Z,70.37
2018-08-13T00:18:20.036Z,71.97
2018-08-13T00:20:48.647Z,72.64
2018-08-13T00:23:17.268Z,72.52
2018-08-13T00:25:45.751Z,71.17
2018-08-13T00:28:14.382Z,70.90
2018-08-13T00:30:42.922Z,71.20
2018-08-13T00:33:12.152Z,71.98
2018-08-13T00:35:40.747Z,73.62
2018-08-13T00:38:09.561Z,73.37
2018-08-13T00:40:38.072Z,74.26
2018-08-13T00:43:07.038Z,74.87
2018-08-13T00:45:35.586Z,73.70
2018-08-13T00:48:04.063Z,74.90
2018-08-13T00:50:32.552Z,73.28
2018-08-13T00:53:00.991Z,74.85
2018-08-13T00:55:29.515Z,74.72
2018-08-13T00:57:58.007Z,74.00
2018-08-13T01:00:26.676Z,75.43
2018-08-13T01:02:55.245Z,76.12
2018-08-13T01:05:23.719Z,76.23
2018-08-13T01:07:52.479Z,75.35
2018-08-13T01:10:22.098Z,75.28
2018-08-13T01:12:50.624Z,75.83
2018-08-13T01:15:20.295Z,75.77
2018-08-13T01:17:49.926Z,76.05
2018-08-13T01:20:19.587Z,76.10
2018-08-13T01:22:48.184Z,76.79
2018-08-13T01:25:19.002Z,76.96
2018-08-13T01:27:47.559Z,78.12
2018-08-13T01:30:17.763Z,77.48
2018-08-13T01:32:46.735Z,76.94
2018-08-13T01:35:15.231Z,77.62
2018-08-13T01:37:43.795Z,77.55
2018-08-13T01:40:12.889Z,77.26
2018-08-13T01:42:41.327Z,77.18
2018-08-13T01:45:11.300Z,77.67
2018-08-13T01:47:40.663Z,77.77
2018-08-13T01:50:10.849Z,77.47
2018-08-13T01:52:39.327Z,77.30
2018-08-13T01:55:09.203Z,77.89
2018-08-13T01:57:37.735Z,78.37
2018-08-13T02:00:09.605Z,78.11
2018-08-13T02:02:38.140Z,79.16
2018-08-13T02:05:07.017Z,78.81
2018-08-13T02:07:35.660Z,78.18
2018-08-13T02:10:04.332Z,78.08
2018-08-13T02:12:32.822Z,77.90
2018-08-13T02:15:01.410Z,77.12
2018-08-13T02:17:29.956Z,77.71
2018-08-13T02:19:58.448Z,77.64
2018-08-13T02:22:27.035Z,78.82
2018-08-13T02:24:55.595Z,78.05
2018-08-13T02:27:24.059Z,77.96
2018-08-13T02:29:52.939Z,77.48
2018-08-13T02:32:21.493Z,75.96
2018-08-13T02:34:49.891Z,76.51
2018-08-13T02:37:18.500Z,75.53
2018-08-13T02:39:46.999Z,76.58
2018-08-13T02:42:15.567Z,76.45
2018-08-13T02:44:44.043Z,76.94
2018-08-13T02:47:12.552Z,77.73
2018-08-13T02:49:41.032Z,78.03
2018-08-13T02:52:09.447Z,77.83
2018-08-13T02:54:37.994Z,77.68
2018-08-13T02:57:07.211Z,77.97
2018-08-13T02:59:35.811Z,78.18
2018-08-13T03:02:04.531Z,77.94
2018-08-13T03:04:33.037Z,77.43
2018-08-13T03:07:01.531Z,78.21
2018-08-13T03:09:29.987Z,78.21
2018-08-13T03:11:58.496Z,78.06
2018-08-13T03:14:27.039Z,78.32
2018-08-13T03:16:55.503Z,79.23
2018-08-13T03:19:23.989Z,79.97
2018-08-13T03:21:52.423Z,79.24
2018-08-13T03:24:20.971Z,78.19
2018-08-13T03:26:49.363Z,78.70
2018-08-13T03:29:18.018Z,77.41
2018-08-13T03:31:46.539Z,76.49
2018-08-13T03:34:15.075Z,76.05
2018-08-13T03:36:43.523Z,77.01
2018-08-13T03:39:13.504Z,77.08
2018-08-13T03:41:43.031Z,77.28
2018-08-13T03:44:12.307Z,77.19
2018-08-13T03:46:40.747Z,77.44
2018-08-13T03:49:10.894Z,78.04
2018-08-13T03:51:39.519Z,76.92
2018-08-13T03:54:07.959Z,77.78
2018-08-13T03:56:36.555Z,79.61
2018-08-13T03:59:05.099Z,79.60
2018-08-13T04:01:33.623Z,77.62
2018-08-13T04:04:02.260Z,77.55
2018-08-13T04:06:30.707Z,77.08
2018-08-13T04:08:59.287Z,76.94
2018-08-13T04:11:27.930Z,75.91
2018-08-13T04:13:56.408Z,75.87
2018-08-13T04:16:24.935Z,76.83
2018-08-13T04:18:53.559Z,80.55
2018-08-13T04:21:22.096Z,81.98
2018-08-13T04:23:50.519Z,80.88
2018-08-13T04:26:18.976Z,79.57
2018-08-13T04:28:47.415Z,78.77
2018-08-13T04:31:15.915Z,79.30
2018-08-13T04:33:44.679Z,78.58
2018-08-13T04:36:13.124Z,77.64
2018-08-13T04:38:41.607Z,77.97
2018-08-13T04:41:10.235Z,76.99
2018-08-13T04:43:38.781Z,77.25
2018-08-13T04:46:07.603Z,76.91
2018-08-13T04:48:36.082Z,76.92
2018-08-13T04:51:04.634Z,76.37
2018-08-13T04:53:33.108Z,76.17
2018-08-13T04:56:01.607Z,76.17
2018-08-13T04:58:30.103Z,77.60
2018-08-13T05:00:58.581Z,76.68
2018-08-13T05:03:27.071Z,75.08
2018-08-13T05:05:55.611Z,73.24
2018-08-13T05:08:24.087Z,71.99
2018-08-13T05:10:52.593Z,71.96
2018-08-13T05:13:21.071Z,71.99
2018-08-13T05:15:49.527Z,71.44
2018-08-13T05:18:18.058Z,71.15
2018-08-13T05:20:46.551Z,71.76
2018-08-13T05:23:15.019Z,70.59
2018-08-13T05:25:43.903Z,70.60
2018-08-13T05:28:12.322Z,70.94
2018-08-13T05:30:40.831Z,71.00
2018-08-13T05:33:09.515Z,71.40
2018-08-13T05:35:37.939Z,70.88
2018-08-13T05:38:06.570Z,72.72
2018-08-13T05:40:35.003Z,72.85
2018-08-13T05:43:03.479Z,71.99
2018-08-13T05:45:31.987Z,71.93
2018-08-13T05:48:00.745Z,72.88
2018-08-13T05:50:29.296Z,72.21
2018-08-13T05:52:57.722Z,71.16
2018-08-13T05:55:26.744Z,74.30
2018-08-13T05:57:55.173Z,75.00
2018-08-13T06:00:23.663Z,74.92
2018-08-13T06:02:52.179Z,73.77
2018-08-13T06:05:20.659Z,76.41
2018-08-13T06:07:49.140Z,81.13
2018-08-13T06:10:17.818Z,84.61
2018-08-13T06:12:46.306Z,82.94
2018-08-13T06:15:14.848Z,83.67
2018-08-13T06:17:43.428Z,84.47
2018-08-13T06:20:13.012Z,82.61
2018-08-13T06:22:42.583Z,84.82
2018-08-13T06:25:11.928Z,85.49
2018-08-13T06:27:40.410Z,84.74
2018-08-13T06:30:14.628Z,85.74
2018-08-13T06:32:43.291Z,86.34
2018-08-13T06:35:12.935Z,88.93
2018-08-13T06:37:42.260Z,92.59
2018-08-13T06:40:10.775Z,92.85
2018-08-13T06:42:39.859Z,92.91
2018-08-13T06:45:09.610Z,92.50
2018-08-13T06:47:39.059Z,90.62
2018-08-13T06:50:09.587Z,90.66
2018-08-13T06:52:38.213Z,89.29
2018-08-13T06:55:06.911Z,89.24
2018-08-13T06:57:36.103Z,88.08
2018-08-13T07:00:06.922Z,87.71
2018-08-13T07:02:35.460Z,89.61
2018-08-13T07:05:04.399Z,89.21
2018-08-13T07:07:32.883Z,90.16
2018-08-13T07:10:01.770Z,89.11
2018-08-13T07:12:30.228Z,88.65
2018-08-13T07:14:58.749Z,88.03
2018-08-13T07:17:27.194Z,89.31
2018-08-13T07:19:55.747Z,89.88
2018-08-13T07:22:24.328Z,89.32
2018-08-13T07:24:52.739Z,90.28
2018-08-13T07:27:21.211Z,89.15
2018-08-13T07:29:49.833Z,88.89
2018-08-13T07:32:18.690Z,92.40
2018-08-13T07:34:47.325Z,91.28
2018-08-13T07:37:15.770Z,92.58
2018-08-13T07:39:44.319Z,91.51
2018-08-13T07:42:12.827Z,84.79
2018-08-13T07:44:41.244Z,89.19
2018-08-13T07:47:09.811Z,93.12
2018-08-13T07:49:38.297Z,94.17
2018-08-13T07:52:06.801Z,94.49
2018-08-13T07:54:35.387Z,95.86
2018-08-13T07:57:03.880Z,94.14
2018-08-13T07:59:32.369Z,93.58
2018-08-13T08:02:01.533Z,94.35
2018-08-13T08:04:29.970Z,94.18
2018-08-13T08:06:58.587Z,97.05
2018-08-13T08:09:27.533Z,95.44
2018-08-13T08:11:55.991Z,95.48
2018-08-13T08:14:24.420Z,95.07
2018-08-13T08:16:52.863Z,94.02
2018-08-13T08:19:21.266Z,93.27
2018-08-13T08:21:49.736Z,94.29
2018-08-13T08:24:18.394Z,98.66
2018-08-13T08:26:46.820Z,98.30
2018-08-13T08:29:15.288Z,97.08
2018-08-13T08:31:43.759Z,96.92
2018-08-13T08:34:12.724Z,94.64
2018-08-13T08:36:41.194Z,95.76
2018-08-13T08:39:13.337Z,96.11
2018-08-13T08:41:42.067Z,97.08
2018-08-13T08:44:11.219Z,96.25
2018-08-13T08:46:40.719Z,95.51
2018-08-13T08:49:09.235Z,95.59
2018-08-13T08:51:39.215Z,95.26
2018-08-13T08:54:08.383Z,95.38
2018-08-13T08:56:37.055Z,94.43
2018-08-13T08:59:07.069Z,95.79
2018-08-13T09:01:35.820Z,97.23
2018-08-13T09:04:04.827Z,96.22
2018-08-13T09:06:33.214Z,95.93
2018-08-13T09:09:01.704Z,95.91
2018-08-13T09:11:30.191Z,95.49
2018-08-13T09:13:58.711Z,97.07
2018-08-13T09:16:27.207Z,97.30
2018-08-13T09:19:06.922Z,95.76
2018-08-13T09:21:36.892Z,96.98
2018-08-13T09:24:17.229Z,96.87
2018-08-13T09:26:56.942Z,97.20
2018-08-13T09:29:36.504Z,96.53
2018-08-13T09:33:13.987Z,97.46
2018-08-13T09:35:42.436Z,96.85
2018-08-13T09:38:11.360Z,96.98
2018-08-13T09:40:40.030Z,94.30
2018-08-13T09:43:08.566Z,92.45
2018-08-13T09:45:37.143Z,93.48
2018-08-13T09:48:06.390Z,91.52
2018-08-13T09:50:35.081Z,92.38
2018-08-13T09:53:03.585Z,93.35
2018-08-13T09:55:32.157Z,93.91
2018-08-13T09:58:00.682Z,94.04
2018-08-13T10:00:34.602Z,93.36
2018-08-13T10:03:03.110Z,92.07
2018-08-13T10:05:31.563Z,94.00
2018-08-13T10:08:00.352Z,95.11
2018-08-13T10:10:28.908Z,95.24
2018-08-13T10:12:57.412Z,94.65
2018-08-13T10:15:25.882Z,93.92
2018-08-13T10:17:54.400Z,95.70
2018-08-13T10:20:22.925Z,94.90
2018-08-13T10:22:51.549Z,95.64
2018-08-13T10:25:20.190Z,95.69
2018-08-13T10:27:48.665Z,94.83
2018-08-13T10:30:17.895Z,94.28
2018-08-13T10:32:46.786Z,94.36
2018-08-13T10:35:15.292Z,94.47
2018-08-13T10:37:43.823Z,93.79
2018-08-13T10:40:15.371Z,94.39
2018-08-13T10:42:43.806Z,93.39
2018-08-13T10:45:12.453Z,94.10
2018-08-13T10:47:40.914Z,95.22
2018-08-13T10:50:11.224Z,95.26
2018-08-13T10:52:40.729Z,95.09
2018-08-13T10:55:10.364Z,96.17
2018-08-13T10:57:38.848Z,96.91
2018-08-13T11:00:09.764Z,96.04
2018-08-13T11:02:38.517Z,96.46
2018-08-13T11:05:08.624Z,97.23
2018-08-13T11:07:37.143Z,97.83
2018-08-13T11:10:07.642Z,98.23
2018-08-13T11:12:36.535Z,96.99
2018-08-13T11:15:08.347Z,96.37
2018-08-13T11:17:36.883Z,95.18
2018-08-13T11:20:06.022Z,94.30
2018-08-13T11:22:34.599Z,95.47
2018-08-13T11:25:03.102Z,93.31
2018-08-13T11:27:31.559Z,91.41
2018-08-13T11:30:00.359Z,91.11
2018-08-13T11:32:28.838Z,90.18
2018-08-13T11:34:57.541Z,89.57
2018-08-13T11:37:26.109Z,89.42
2018-08-13T11:39:54.658Z,87.39
2018-08-13T11:42:23.123Z,87.35
2018-08-13T11:44:51.679Z,85.67
2018-08-13T11:47:20.163Z,85.92
2018-08-13T11:49:48.747Z,83.71
2018-08-13T11:52:17.267Z,81.48
2018-08-13T11:54:45.721Z,82.71
2018-08-13T11:57:14.235Z,79.83
2018-08-13T11:59:42.937Z,75.58
2018-08-13T12:02:11.464Z,74.75
2018-08-13T12:04:39.823Z,76.56
2018-08-13T12:07:08.412Z,76.31
2018-08-13T12:09:36.915Z,75.07
2018-08-13T12:12:05.603Z,75.74
2018-08-13T12:14:34.351Z,74.95
2018-08-13T12:17:03.180Z,74.52
2018-08-13T12:19:31.826Z,71.72
2018-08-13T12:22:00.351Z,71.01
2018-08-13T12:24:28.784Z,71.30
2018-08-13T12:26:57.371Z,69.97
2018-08-13T12:29:26.007Z,71.66
2018-08-13T12:31:54.491Z,69.18
2018-08-13T12:34:22.972Z,68.04
2018-08-13T12:36:55.811Z,68.49
2018-08-13T12:39:24.320Z,68.36
2018-08-13T12:41:52.671Z,68.16
2018-08-13T12:44:21.298Z,66.33
2018-08-13T12:46:49.744Z,66.65
2018-08-13T12:49:18.275Z,66.62
2018-08-13T12:51:47.186Z,66.83
2018-08-13T12:54:15.695Z,67.39
2018-08-13T12:56:44.135Z,66.62
2018-08-13T12:59:12.889Z,64.73
2018-08-13T13:01:41.322Z,66.00
2018-08-13T13:04:09.732Z,67.52
2018-08-13T13:06:38.229Z,66.56
2018-08-13T13:09:09.191Z,67.23
2018-08-13T13:11:38.123Z,66.82
2018-08-13T13:14:09.965Z,66.38
2018-08-13T13:16:38.754Z,64.46
2018-08-13T13:19:07.677Z,64.93
2018-08-13T13:21:36.151Z,64.24
2018-08-13T13:24:05.497Z,62.87
2018-08-13T13:26:34.463Z,62.84
2018-08-13T13:29:02.971Z,63.53
2018-08-13T13:31:31.388Z,62.97
2018-08-13T13:33:59.799Z,62.78
2018-08-13T13:36:28.331Z,61.39
2018-08-13T13:38:57.101Z,62.38
2018-08-13T13:41:25.627Z,62.16
2018-08-13T13:43:54.131Z,61.90
2018-08-13T13:46:22.909Z,60.85
2018-08-13T13:48:51.772Z,62.44
2018-08-13T13:51:20.283Z,60.57
2018-08-13T13:53:49.176Z,61.31
2018-08-13T13:56:17.799Z,60.37
2018-08-13T13:58:46.319Z,60.82
2018-08-13T14:01:14.816Z,59.66
2018-08-13T14:03:43.296Z,60.42
2018-08-13T14:06:11.776Z,60.12
2018-08-13T14:08:40.443Z,61.02
2018-08-13T14:11:09.089Z,60.60
2018-08-13T14:13:37.483Z,61.80
2018-08-13T14:16:06.019Z,64.51
2018-08-13T14:18:34.476Z,67.30
2018-08-13T14:21:03.066Z,66.57
2018-08-13T14:23:31.914Z,64.11
2018-08-13T14:26:00.355Z,64.72
2018-08-13T14:28:28.823Z,63.58
2018-08-13T14:30:57.491Z,63.71
2018-08-13T14:33:25.851Z,65.22
2018-08-13T14:35:54.286Z,64.45
2018-08-13T14:38:22.975Z,63.73
2018-08-13T14:40:51.428Z,65.02
2018-08-13T14:43:19.932Z,65.68
2018-08-13T14:45:48.568Z,64.61
2018-08-13T14:48:17.001Z,64.69
2018-08-13T14:50:45.400Z,65.30
2018-08-13T14:53:14.043Z,65.51
2018-08-13T14:55:42.579Z,65.01
2018-08-13T14:58:12.875Z,63.60
2018-08-13T15:00:41.780Z,64.06
2018-08-13T15:03:12.366Z,63.44
2018-08-13T15:05:41.642Z,62.75
2018-08-13T15:08:10.222Z,61.38
2018-08-13T15:10:38.789Z,60.23
2018-08-13T15:13:07.313Z,60.89
2018-08-13T15:15:35.735Z,59.08
2018-08-13T15:18:04.296Z,58.70
2018-08-13T15:20:33.423Z,58.62
2018-08-13T15:23:01.912Z,56.68
2018-08-13T15:25:30.441Z,58.11
2018-08-13T15:27:58.963Z,56.91
2018-08-13T15:30:27.888Z,59.05
2018-08-13T15:32:56.267Z,58.36
2018-08-13T15:35:25.207Z,56.96
2018-08-13T15:37:53.654Z,57.48
2018-08-13T15:40:22.139Z,56.55
2018-08-13T15:42:50.663Z,57.41
2018-08-13T15:45:21.549Z,57.62
2018-08-13T15:47:50.508Z,58.25
2018-08-13T15:50:20.139Z,56.18
2018-08-13T15:52:49.259Z,55.97
2018-08-13T15:55:17.847Z,50.28
2018-08-13T15:57:46.727Z,48.48
2018-08-13T16:00:18.771Z,46.95
2018-08-13T16:02:47.827Z,46.10
2018-08-13T16:05:16.415Z,46.42
2018-08-13T16:07:45.243Z,46.12
2018-08-13T16:10:15.331Z,46.15
2018-08-13T16:12:44.140Z,46.36
2018-08-13T16:15:13.131Z,46.27
2018-08-13T16:17:42.003Z,45.83
2018-08-13T16:20:15.795Z,46.33
2018-08-13T16:22:45.292Z,45.69
2018-08-13T16:25:14.009Z,46.07
2018-08-13T16:27:42.880Z,46.76
2018-08-13T16:30:18.495Z,47.37
2018-08-13T16:32:48.140Z,46.98
2018-08-13T16:35:17.179Z,46.62
2018-08-13T16:37:46.132Z,46.60
2018-08-13T16:40:15.331Z,47.42
2018-08-13T16:42:43.874Z,47.73
2018-08-13T16:45:13.595Z,47.65
2018-08-13T16:47:42.359Z,48.25
2018-08-13T16:50:23.426Z,47.87
2018-08-13T16:52:52.215Z,47.63
2018-08-13T16:55:20.697Z,48.73
2018-08-13T16:57:49.252Z,47.49
2018-08-13T17:00:23.843Z,49.02
2018-08-13T17:02:52.633Z,48.48
2018-08-13T17:05:21.324Z,47.92
2018-08-13T17:07:50.088Z,47.97
2018-08-13T17:10:20.902Z,47.95
2018-08-13T17:12:50.327Z,48.78
2018-08-13T17:15:18.927Z,48.47
2018-08-13T17:17:51.879Z,48.96
2018-08-13T17:20:25.464Z,49.33
2018-08-13T17:22:54.386Z,50.13
2018-08-13T17:25:23.791Z,50.27
2018-08-13T17:27:52.395Z,51.10
2018-08-13T17:30:23.080Z,51.49
2018-08-13T17:32:52.715Z,52.22
2018-08-13T17:35:23.667Z,52.26
2018-08-13T17:37:52.163Z,52.95
2018-08-13T17:40:22.327Z,52.53
2018-08-13T17:42:51.476Z,52.15
2018-08-13T17:45:19.888Z,56.62
2018-08-13T17:47:48.394Z,59.13
2018-08-13T17:50:18.611Z,61.33
2018-08-13T17:52:47.176Z,63.50
2018-08-13T17:55:16.495Z,64.87
2018-08-13T17:57:45.457Z,67.04
2018-08-13T18:00:18.462Z,69.95
2018-08-13T18:02:47.081Z,69.85
2018-08-13T18:05:17.945Z,67.31
2018-08-13T18:07:47.220Z,68.95
2018-08-13T18:10:22.939Z,71.73
2018-08-13T18:12:53.106Z,71.79
2018-08-13T18:15:21.873Z,72.93
2018-08-13T18:17:50.581Z,73.89
2018-08-13T18:20:19.522Z,75.43
2018-08-13T18:22:48.466Z,77.97
2018-08-13T18:25:17.485Z,76.90
2018-08-13T18:27:47.611Z,78.33
2018-08-13T18:30:18.259Z,78.53
2018-08-13T18:32:47.197Z,78.88
2018-08-13T18:35:17.025Z,77.21
2018-08-13T18:37:45.898Z,79.82
2018-08-13T18:40:17.821Z,81.33
2018-08-13T18:42:47.864Z,79.27
2018-08-13T18:45:18.549Z,81.40
2018-08-13T18:47:48.593Z,83.17
2018-08-13T18:50:18.966Z,80.16
2018-08-13T18:52:48.112Z,80.96
2018-08-13T18:55:18.217Z,79.93
2018-08-13T18:57:47.809Z,79.84
2018-08-13T19:00:18.710Z,81.47
2018-08-13T19:02:47.787Z,83.22
2018-08-13T19:05:19.098Z,82.63
2018-08-13T19:07:48.452Z,83.35
2018-08-13T19:10:19.933Z,81.42
2018-08-13T19:12:49.088Z,81.95
2018-08-13T19:15:23.238Z,81.74
2018-08-13T19:17:54.470Z,80.24
2018-08-13T19:20:24.690Z,81.13
2018-08-13T19:22:55.239Z,81.69
2018-08-13T19:25:26.355Z,82.58
2018-08-13T19:27:55.482Z,83.50
2018-08-13T19:30:25.323Z,83.91
2018-08-13T19:32:55.013Z,83.83
2018-08-13T19:35:24.060Z,84.37
2018-08-13T19:37:53.465Z,84.99
2018-08-13T19:40:24.953Z,84.78
2018-08-13T19:42:54.575Z,83.91
2018-08-13T19:45:24.320Z,85.45
2018-08-13T19:47:54.621Z,86.22
2018-08-13T19:50:23.510Z,86.74
2018-08-13T19:52:53.042Z,86.18
2018-08-13T19:55:22.245Z,85.92
2018-08-13T19:57:52.119Z,85.34
2018-08-13T20:00:24.094Z,85.99
2018-08-13T20:02:53.408Z,85.78
2018-08-13T20:05:23.992Z,85.84
2018-08-13T20:07:53.717Z,86.20
2018-08-13T20:10:22.662Z,86.44
2018-08-13T20:12:51.742Z,85.00
2018-08-13T20:15:20.754Z,84.55
2018-08-13T20:17:49.810Z,83.94
2018-08-13T20:20:20.424Z,85.50
2018-08-13T20:22:49.849Z,86.97
2018-08-13T20:25:19.612Z,87.71
2018-08-13T20:27:49.264Z,86.90
2018-08-13T20:30:19.878Z,87.23
2018-08-13T20:32:49.890Z,87.41
2018-08-13T20:35:18.854Z,86.31
2018-08-13T20:37:47.579Z,87.81
2018-08-13T20:40:18.324Z,88.35
2018-08-13T20:42:47.674Z,89.28
2018-08-13T20:45:18.350Z,89.23
2018-08-13T20:47:47.340Z,88.49
2018-08-13T20:50:18.072Z,89.40
2018-08-13T20:52:47.483Z,90.73
2018-08-13T20:55:25.007Z,90.00
2018-08-13T20:57:53.531Z,89.71
2018-08-13T21:00:23.673Z,90.58
2018-08-13T21:02:52.258Z,90.78
2018-08-13T21:05:20.755Z,91.04
2018-08-13T21:07:49.875Z,90.80
2018-08-13T21:10:23.215Z,90.87
2018-08-13T21:12:51.943Z,90.28
2018-08-13T21:15:20.735Z,89.85
2018-08-13T21:17:49.313Z,89.09
2018-08-13T21:20:20.434Z,90.38
2018-08-13T21:22:48.955Z,88.22
2018-08-13T21:25:17.553Z,89.82
2018-08-13T21:27:46.327Z,89.78
2018-08-13T21:30:15.080Z,88.90
2018-08-13T21:32:44.450Z,87.27
2018-08-13T21:35:16.825Z,88.11
2018-08-13T21:37:45.594Z,88.20
2018-08-13T21:40:14.041Z,88.86
2018-08-13T21:42:42.660Z,89.50
2018-08-13T21:45:11.840Z,89.55
2018-08-13T21:47:40.831Z,89.34
2018-08-13T21:50:12.708Z,88.76
2018-08-13T21:52:41.327Z,89.33
2018-08-13T21:55:10.451Z,88.86
2018-08-13T21:57:38.980Z,89.60
2018-08-13T22:00:24.757Z,88.64
2018-08-13T22:02:53.631Z,89.16
2018-08-13T22:05:22.207Z,89.21
2018-08-13T22:07:50.696Z,88.94
2018-08-13T22:10:19.352Z,87.69
2018-08-13T22:12:47.982Z,87.24
2018-08-13T22:15:25.464Z,87.22
2018-08-13T22:17:55.226Z,86.77
2018-08-13T22:20:24.121Z,87.07
2018-08-13T22:22:52.763Z,88.40
2018-08-13T22:25:23.220Z,88.67
2018-08-13T22:27:51.768Z,89.61
2018-08-13T22:30:20.386Z,90.60
2018-08-13T22:32:48.859Z,89.49
2018-08-13T22:35:17.358Z,89.46
2018-08-13T22:37:45.791Z,89.17
2018-08-13T22:40:17.831Z,88.38
2018-08-13T22:42:46.750Z,87.63
2018-08-13T22:45:16.751Z,88.31
2018-08-13T22:47:45.383Z,87.15
2018-08-13T22:50:13.930Z,86.97
2018-08-13T22:52:42.422Z,88.48
2018-08-13T22:55:12.843Z,87.49
2018-08-13T22:57:41.379Z,87.81
2018-08-13T23:00:12.827Z,87.87
2018-08-13T23:02:41.784Z,87.81
2018-08-13T23:05:28.242Z,89.09
2018-08-13T23:07:56.755Z,89.01
2018-08-13T23:10:25.873Z,89.97
2018-08-13T23:12:56.005Z,89.87
2018-08-13T23:15:24.595Z,90.13
2018-08-13T23:17:53.751Z,90.67
2018-08-13T23:20:25.099Z,90.01
2018-08-13T23:22:59.584Z,90.31
2018-08-13T23:25:28.829Z,89.40
2018-08-13T23:27:58.550Z,90.46
2018-08-13T23:30:27.220Z,90.36
2018-08-13T23:32:56.579Z,91.75
2018-08-13T23:35:25.762Z,91.23
2018-08-13T23:37:54.559Z,90.95
2018-08-13T23:40:23.869Z,90.46
2018-08-13T23:42:52.320Z,90.77
2018-08-13T23:45:24.866Z,89.25
2018-08-13T23:47:53.355Z,89.61
2018-08-13T23:50:23.103Z,89.55
2018-08-13T23:52:53.005Z,90.90
2018-08-13T23:55:32.264Z,90.60
2018-08-13T23:58:01.223Z,90.13
